Jesus Teran International Airport
MMAS : now visible

Airfield :











YOU CAN JOIN US ON...

 
LOGIN :

Register | Disclaimer

   EN    FR    IT 

 









Legend :    VFR   Marginal VFR   IFR   Intensive IFR   Very Intensive IFR
Visi :
Ceiling :
>= 8 km
>= 3000ft
5 to 8 km
1000 to 3000 ft
1500m to 5 km
500 to 1000 ft
800 to 1500m
200 to 500 ft
< 800m
< 200 ft
Symbols :   Thunderstorms  Fog  Heavy snow  Heavy precipitations  Wind > 20 kt






- Airport Elevation : 6112 ft
- IATA code : AGU


MMAS - Jesus Teran International

CURRENT METAR :
  • 040242Z 25007KT 9SM SKC 21/M01 A3011 RMK HZY PRESRR

EXPIRED METARs :
  • 040141Z 22009KT 9SM SKC 24/M01 A3007
  • 040041Z 21014KT 9SM SKC 27/M03 A3006 RMK CI DSNT ARND HZY

TAF TAF MMAS
Valid from the 03 at 18:00 until the 04 at 18:00 UTC


031646Z 0318/0418 23010KT P6SM SKC
TEMPO 0320/0324 23015KT
FM040300 20005KT P6SM SKC
FM041600 21010KT P6SM SKC



MET'MAP, your aeronautical weather chart ! - Copyright ORBIFLY December 2007 - Disclaimer

ORBIFLY MET'MAP TEAM :

Programming & Development : Alexandra Zaïnal
Concept & original design : Baudouin d'Aumeries
Assistance for programming : Marc-Olivier Méhu
Technical & hardware support : Manuel Goepfert

Contact : metmap@orbifly.com




SOURCES & CREDITS :

   NOAA       Earth
Advisory